• Join FlightAware (Why Join?)
  • Login
  • US Flag 
01:00AM EST


 

Airport Tracker/Info


-or-


 

Live Flight TrackerFlight Track Log ✈ N147SW ✈ 16-Jun-2014 ✈ KTPA - KOFP

Flight Track Log - Related Links

Times and Time Zones

All times are in EDT time to prevent confusion due to time zone crossing. See the N147SW flight status page for this flight to view local times or setup timezone preferences in your user account.

Time Position Orientation Groundspeed Altitude Reporting Facility
EDT Latitude Longitude Course Direction KTS MPH feet Rate Location/Type
03:42PM 27.9833 -82.5333 360° North 163 188 600  Level Tampa TRACON
03:42PM 28.0000 -82.5333 360° North 173 199 2,000 3,480 Climbing Tampa TRACON
03:44PM 28.0942 -82.5703 341° North 229 264 8,100 3,480 Climbing Miami Center
03:45PM 28.1586 -82.6278 322° Northwest 241 277 11,900 3,360 Climbing Miami Center
03:46PM 28.2375 -82.6617 339° North 265 305 15,000 2,940 Climbing Jacksonville Center
03:47PM 28.3189 -82.6850 346° North 284 327 17,800 2,820 Climbing Jacksonville Center
03:48PM 28.4064 -82.7086 347° North 300 345 20,700 2,760 Climbing Jacksonville Center
03:49PM 28.4983 -82.7225 352° North 316 364 23,400 2,280 Climbing Jacksonville Center
03:50PM 28.5942 -82.7128 North 327 376 25,300 1,860 Climbing Jacksonville Center
03:51PM 28.6714 -82.7103 North 332 382 27,200 1,800 Climbing Jacksonville Center
03:52PM 28.7800 -82.6983 North 343 395 28,900 900 Climbing Jacksonville Center
03:53PM 28.8886 -82.6886 North 368 423 29,000  Climbing Jacksonville Center
03:54PM 29.0075 -82.6764 North 400 460 29,000  Level Jacksonville Center
03:55PM 29.1306 -82.6692 North 423 487 29,000  Level Jacksonville Center
03:56PM 29.2539 -82.6569 North 433 498 29,000  Level Jacksonville Center
03:57PM 29.3728 -82.6686 355° North 433 498 29,000 840 Level Jacksonville Center
03:58PM 29.5106 -82.6969 350° North 443 510 30,800 1,920 Climbing Jacksonville Center
03:59PM 29.6233 -82.6919 North 425 489 32,900 1,080 Climbing Jacksonville Center
04:00PM 29.7403 -82.6725 North 410 472 33,000 900 Climbing Jacksonville Center
04:01PM 29.8592 -82.6531 North 422 486 34,800 1,740 Climbing Jacksonville Center
04:02PM 29.9761 -82.6311 North 428 493 36,500 1,080 Climbing Jacksonville Center
04:03PM 30.0931 -82.6189 North 422 486 37,000 720 Climbing Jacksonville Center
04:04PM 30.2119 -82.5994 North 429 494 38,000 960 Climbing Jacksonville Center
04:05PM 30.3331 -82.5822 North 429 494 39,000 480 Climbing Jacksonville Center
04:06PM 30.4539 -82.5647 North 429 494 39,000  Level Jacksonville Center
04:07PM 30.5583 -82.5236 19° North 429 494 39,000  Level Jacksonville Center
04:08PM 30.6708 -82.4506 29° Northeast 435 501 39,000  Level Jacksonville Center
04:09PM 30.7792 -82.3800 29° Northeast 435 501 39,000 60 Level Jacksonville Center
04:10PM 30.8747 -82.2875 40° Northeast 446 513 39,200 780 Climbing Jacksonville Center
04:11PM 30.9703 -82.1925 40° Northeast 446 513 40,600 900 Climbing Jacksonville Center
04:12PM 31.0617 -82.1044 40° Northeast 439 505 41,000 180 Climbing Jacksonville Center
04:13PM 31.1614 -82.0161 37° Northeast 434 499 41,000 840 Level Jacksonville Center
04:14PM 31.2694 -81.9642 22° Northeast 427 491 42,700 960 Climbing Jacksonville Center
04:15PM 31.3733 -81.8925 30° Northeast 421 484 43,000 120 Climbing Jacksonville Center
04:16PM 31.4897 -81.8181 29° Northeast 416 479 43,000  Level Jacksonville Center
04:17PM 31.5975 -81.7461 30° Northeast 422 486 43,000  Level Jacksonville Center
04:18PM 31.6953 -81.6839 28° Northeast 434 499 43,000  Level Jacksonville Center
04:19PM 31.8133 -81.6089 28° Northeast 434 499 43,000  Level Jacksonville Center
04:20PM 31.9089 -81.5464 29° Northeast 435 501 43,000  Level Jacksonville Center
04:21PM 32.0250 -81.4689 30° Northeast 435 501 43,000  Level Jacksonville Center
04:22PM 32.1328 -81.4008 28° Northeast 449 517 43,000  Level Jacksonville Center
04:23PM 32.2322 -81.3331 30° Northeast 443 510 43,000  Level Jacksonville Center
04:24PM 32.3397 -81.2597 30° Northeast 443 510 43,000  Level Jacksonville Center
04:25PM 32.4494 -81.1914 28° Northeast 437 503 43,000  Level Jacksonville Center
04:26PM 32.5675 -81.1128 29° Northeast 437 503 43,000  Level Jacksonville Center
04:27PM 32.6603 -81.0469 31° Northeast 437 503 43,000  Level Jacksonville Center
04:28PM 32.7700 -80.9778 28° Northeast 437 503 43,000  Level Jacksonville Center
04:29PM 32.8775 -80.9039 30° Northeast 437 503 43,000  Level Jacksonville Center
04:30PM 32.9847 -80.8322 29° Northeast 437 503 43,000  Level Jacksonville Center
04:31PM 33.0922 -80.7628 28° Northeast 437 503 43,000  Level Jacksonville Center
04:32PM 33.2014 -80.6881 30° Northeast 437 503 43,000  Level Jacksonville Center
04:33PM 33.3192 -80.6108 29° Northeast 437 503 43,000  Level Jacksonville Center
04:34PM 33.4306 -80.5356 29° Northeast 442 509 43,000  Level Jacksonville Center
04:35PM 33.5375 -80.4631 29° Northeast 442 509 43,000  Level Jacksonville Center
04:36PM 33.6467 -80.3853 31° Northeast 442 509 43,000  Level Jacksonville Center
04:37PM 33.7558 -80.3122 29° Northeast 442 509 43,000  Level Jacksonville Center
04:38PM 33.8628 -80.2364 30° Northeast 442 509 43,000  Level Jacksonville Center
04:39PM 33.9717 -80.1631 29° Northeast 442 509 43,000  Level Jacksonville Center
04:40PM 34.0806 -80.0869 30° Northeast 442 509 43,000  Level Jacksonville Center
04:41PM 34.1917 -80.0106 30° Northeast 442 509 43,000  Level Jacksonville Center
04:42PM 34.2983 -79.9342 31° Northeast 442 509 43,000  Level Jacksonville Center
04:43PM 34.4303 -79.8369 31° Northeast 449 517 43,000  Level Washington Center
04:44PM 34.5394 -79.7619 30° Northeast 455 524 43,000  Level Washington Center
04:45PM 34.6464 -79.6842 31° Northeast 455 524 43,000 -120 Level Washington Center
04:46PM 34.7575 -79.6089 29° Northeast 455 524 42,800 -600 Descending Washington Center
04:47PM 34.8686 -79.5308 30° Northeast 455 524 41,800 -1,020 Descending Washington Center
04:48PM 34.9817 -79.4528 29° Northeast 455 524 40,800 -1,020 Descending Washington Center
04:49PM 35.0928 -79.3742 30° Northeast 460 529 39,800 -1,020 Descending Washington Center
04:50PM 35.2100 -79.2908 30° Northeast 465 535 38,800 -1,080 Descending Washington Center
04:51PM 35.3422 -79.2003 29° Northeast 486 559 37,700 -1,020 Descending Washington Center
04:52PM 35.4425 -79.1281 30° Northeast 483 556 36,800 -960 Descending Washington Center
04:53PM 35.5553 -79.0489 30° Northeast 472 543 35,800 -1,020 Descending Washington Center
04:54PM 35.6831 -78.9547 31° Northeast 472 543 34,800 -1,080 Descending Washington Center
04:55PM 35.8025 -78.8700 30° Northeast 483 556 33,700 -1,080 Descending Washington Center
04:56PM 35.9194 -78.7853 30° Northeast 483 556 32,700 -1,260 Descending Washington Center
04:57PM 36.0364 -78.6975 31° Northeast 488 562 31,200 -1,800 Descending Washington Center
04:58PM 36.1556 -78.6094 31° Northeast 488 562 29,100 -2,220 Descending Washington Center
04:59PM 36.2744 -78.5239 30° Northeast 488 562 26,800 -2,280 Descending Washington Center
05:00PM 36.3958 -78.4278 33° Northeast 501 577 24,600 -2,220 Descending Washington Center
05:01PM 36.4944 -78.3125 43° Northeast 501 577 22,400 -2,160 Descending Washington Center
05:02PM 36.5928 -78.2022 42° Northeast 483 556 20,300 -1,920 Descending Washington Center
05:03PM 36.6806 -78.1092 40° Northeast 467 537 18,500 -1,920 Descending Washington Center
05:04PM 36.7700 -78.0083 42° Northeast 444 511 16,600 -1,920 Descending Washington Center
05:05PM 36.8619 -77.9075 41° Northeast 439 505 14,800 -1,860 Descending Washington Center
05:06PM 36.9492 -77.8114 41° Northeast 424 488 12,900 -2,100 Descending Washington Center
05:07PM 37.0511 -77.7181 36° Northeast 414 476 10,700 -1,560 Descending Washington Center
05:08PM 37.1436 -77.6789 19° North 378 435 9,900 -1,380 Descending Washington Center
05:09PM 37.2192 -77.6469 19° North 330 380 8,000 -2,040 Descending Washington Center
05:10PM 37.2947 -77.6150 19° North 296 341 5,900 -1,980 Descending Washington Center
05:11PM 37.3642 -77.5831 20° North 275 316 4,100 -1,380 Descending Washington Center
05:12PM 37.4336 -77.5533 19° North 264 304 3,200 -600 Descending Washington Center
05:13PM 37.5028 -77.5236 19° North 259 298 3,000 -360 Descending Washington Center
05:14PM 37.5636 -77.4964 20° North 259 298 2,500 -540 Descending Washington Center
05:16PM 37.6966 -77.4342 11° North  Level FlightAware Approximate
05:23PM 37.7000 -77.4333 11° North  Level FlightAware Approximate
05:24PM 37.7089 -77.4366 11° North  Level Estimated
05:25PM 37.7089 -77.4366 11° North  Level Estimated
05:26PM 37.7089 -77.4366 11° North  Level Estimated
05:27PM 37.7089 -77.4366 11° North  Level Estimated
05:28PM 37.7089 -77.4366 11° North  Level Estimated
05:29PM 37.7089 -77.4366 11° North  Level Estimated
05:30PM 37.7089 -77.4366 11° North  Level Estimated
05:31PM 37.7089 -77.4366 11° North  Level Estimated
05:32PM 37.7089 -77.4366 11° North  Level Estimated
05:33PM 37.7089 -77.4366 11° North  Level Estimated
05:34PM 37.7089 -77.4366 11° North  Level Estimated